Time;durP1;ratioP1;P1;durP2;ratioP2;P2;SDS_P1;SDS_P2;PMS_P1;PMS_P2;Temp;Humidity;BMP_temperature;BMP_pressure;BME280_temperature;BME280_humidity;BME280_pressure;Samples;Min_cycle;Max_cycle;Signal;HPM_P1;HPM_P2
2022/07/13 00:00:46;;;;;;;1.80;0.95;;;;;;;;;;5068369;28;20202;-65
2022/07/13 00:03:13;;;;;;;1.15;1.15;;;;;;;;;;5068576;28;20581;-65
2022/07/13 00:05:40;;;;;;;1.15;1.05;;;;;;;;;;5072467;28;20202;-65
2022/07/13 00:08:07;;;;;;;2.15;1.17;;;;;;;;;;5084709;28;20210;-65
2022/07/13 00:10:34;;;;;;;1.00;1.00;;;;;;;;;;5086794;28;20199;-65
2022/07/13 00:13:01;;;;;;;0.98;0.98;;;;;;;;;;5072430;28;20203;-65
2022/07/13 00:15:30;;;;;;;0.93;0.93;;;;;;;;;;5072944;28;20234;-65
2022/07/13 00:17:57;;;;;;;1.27;1.00;;;;;;;;;;5070897;28;20213;-65
2022/07/13 00:20:24;;;;;;;1.00;0.98;;;;;;;;;;5072623;28;20677;-65
2022/07/13 00:22:51;;;;;;;1.10;1.10;;;;;;;;;;5071791;28;20660;-65
2022/07/13 00:25:18;;;;;;;0.93;0.93;;;;;;;;;;5072681;28;20210;-65
2022/07/13 00:27:45;;;;;;;0.70;0.70;;;;;;;;;;5072369;28;20671;-65
2022/07/13 00:30:12;;;;;;;1.73;1.10;;;;;;;;;;5068906;28;20207;-65
2022/07/13 00:32:40;;;;;;;1.40;1.10;;;;;;;;;;5069860;28;20202;-65
2022/07/13 00:35:08;;;;;;;1.08;1.08;;;;;;;;;;5071746;28;20219;-65
2022/07/13 00:37:35;;;;;;;1.17;1.17;;;;;;;;;;5071941;28;20210;-65
2022/07/13 00:40:02;;;;;;;1.10;1.10;;;;;;;;;;5072249;28;20210;-65
2022/07/13 00:42:29;;;;;;;1.00;1.00;;;;;;;;;;5059678;28;20203;-65
2022/07/13 00:44:56;;;;;;;1.00;1.00;;;;;;;;;;5071201;28;20211;-65
2022/07/13 00:47:23;;;;;;;1.30;1.30;;;;;;;;;;5069595;28;20233;-64
2022/07/13 00:49:52;;;;;;;0.82;0.82;;;;;;;;;;5071561;28;20206;-64
2022/07/13 00:52:19;;;;;;;1.65;1.10;;;;;;;;;;5070203;28;20214;-65
2022/07/13 00:54:46;;;;;;;2.38;1.05;;;;;;;;;;5069608;28;20284;-64
2022/07/13 00:57:15;;;;;;;1.00;1.00;;;;;;;;;;5068991;28;20665;-66
2022/07/13 00:59:42;;;;;;;0.88;0.88;;;;;;;;;;5071101;28;20298;-64
2022/07/13 01:02:09;;;;;;;3.92;1.10;;;;;;;;;;5071955;28;20206;-66
2022/07/13 01:04:36;;;;;;;1.17;0.82;;;;;;;;;;5071289;28;20572;-67
2022/07/13 01:07:04;;;;;;;1.02;0.90;;;;;;;;;;5072003;28;20223;-64
2022/07/13 01:09:32;;;;;;;1.00;1.00;;;;;;;;;;5071291;28;20203;-64
2022/07/13 01:11:59;;;;;;;4.13;1.10;;;;;;;;;;5071658;28;20211;-66
2022/07/13 01:14:26;;;;;;;0.90;0.90;;;;;;;;;;5069759;28;20210;-64
2022/07/13 01:16:53;;;;;;;0.95;0.95;;;;;;;;;;5068856;28;20202;-64
2022/07/13 01:19:20;;;;;;;1.30;1.23;;;;;;;;;;5069795;28;20199;-64
2022/07/13 01:21:48;;;;;;;1.20;1.10;;;;;;;;;;5067594;28;20203;-65
2022/07/13 01:24:16;;;;;;;1.00;1.00;;;;;;;;;;5067415;28;20276;-65
2022/07/13 01:26:44;;;;;;;4.53;1.20;;;;;;;;;;5070351;28;20207;-65
2022/07/13 01:29:11;;;;;;;1.50;0.88;;;;;;;;;;5071313;28;20228;-64
2022/07/13 01:31:40;;;;;;;3.63;0.80;;;;;;;;;;5070230;28;20904;-64
2022/07/13 01:34:08;;;;;;;0.95;0.88;;;;;;;;;;5069801;28;20207;-64
2022/07/13 01:36:35;;;;;;;0.95;0.95;;;;;;;;;;5069032;28;20219;-64
2022/07/13 01:39:03;;;;;;;0.88;0.88;;;;;;;;;;5066268;28;20218;-65
2022/07/13 01:41:31;;;;;;;1.23;1.23;;;;;;;;;;5069466;28;20557;-65
2022/07/13 01:43:58;;;;;;;0.95;0.95;;;;;;;;;;5071003;28;20210;-66
2022/07/13 01:46:25;;;;;;;1.15;1.15;;;;;;;;;;5070400;28;20622;-64
2022/07/13 01:48:52;;;;;;;1.05;1.05;;;;;;;;;;5070790;28;20210;-64
2022/07/13 01:51:19;;;;;;;0.93;0.93;;;;;;;;;;5069974;28;20196;-64
2022/07/13 01:53:47;;;;;;;1.05;1.05;;;;;;;;;;5070532;28;20219;-64
2022/07/13 01:56:14;;;;;;;1.02;1.02;;;;;;;;;;5067698;28;20223;-64
2022/07/13 01:58:42;;;;;;;0.93;0.93;;;;;;;;;;5061538;28;20230;-64
2022/07/13 02:01:09;;;;;;;1.00;1.00;;;;;;;;;;5068138;28;20218;-64
2022/07/13 02:03:37;;;;;;;1.20;1.10;;;;;;;;;;5067961;28;20211;-64
2022/07/13 02:06:05;;;;;;;0.80;0.80;;;;;;;;;;5068373;28;20393;-64
2022/07/13 02:08:32;;;;;;;1.10;1.10;;;;;;;;;;5068353;28;20293;-64
2022/07/13 02:10:59;;;;;;;1.08;1.00;;;;;;;;;;5065508;28;20203;-64
2022/07/13 02:13:26;;;;;;;1.80;1.33;;;;;;;;;;5069280;28;20215;-64
2022/07/13 02:15:54;;;;;;;2.80;1.13;;;;;;;;;;5068069;28;20226;-66
2022/07/13 02:18:21;;;;;;;1.10;1.10;;;;;;;;;;5068090;28;20203;-63
2022/07/13 02:20:48;;;;;;;1.10;1.10;;;;;;;;;;5067517;28;20303;-64
2022/07/13 02:23:16;;;;;;;1.00;1.00;;;;;;;;;;5067645;28;20673;-63
2022/07/13 02:25:43;;;;;;;1.13;1.00;;;;;;;;;;5067800;28;20289;-63
2022/07/13 02:28:10;;;;;;;1.67;0.98;;;;;;;;;;5067685;28;20207;-64
2022/07/13 02:30:37;;;;;;;1.00;1.00;;;;;;;;;;5068291;28;20549;-65
2022/07/13 02:33:06;;;;;;;1.10;1.10;;;;;;;;;;5067476;28;20218;-64
2022/07/13 02:35:33;;;;;;;1.20;1.20;;;;;;;;;;5067728;28;20270;-66
2022/07/13 02:38:00;;;;;;;0.80;0.80;;;;;;;;;;5066806;28;20211;-66
2022/07/13 02:40:27;;;;;;;1.05;1.05;;;;;;;;;;5069463;28;20218;-66
2022/07/13 02:42:54;;;;;;;1.27;1.15;;;;;;;;;;5065721;28;20224;-66
2022/07/13 02:45:21;;;;;;;1.90;1.05;;;;;;;;;;5065401;28;20230;-66
2022/07/13 02:47:48;;;;;;;1.10;1.10;;;;;;;;;;5067208;28;20210;-66
2022/07/13 02:50:17;;;;;;;0.85;0.85;;;;;;;;;;5067832;28;20276;-66
2022/07/13 02:52:44;;;;;;;1.38;1.05;;;;;;;;;;5067981;28;20199;-65
2022/07/13 02:55:11;;;;;;;1.25;1.15;;;;;;;;;;5065851;28;20701;-66
2022/07/13 02:57:38;;;;;;;2.10;1.02;;;;;;;;;;5066840;28;20716;-66
2022/07/13 03:00:05;;;;;;;1.13;1.10;;;;;;;;;;5067431;28;20634;-66
2022/07/13 03:02:32;;;;;;;0.98;0.98;;;;;;;;;;5067774;28;20211;-66
2022/07/13 03:04:59;;;;;;;3.25;1.45;;;;;;;;;;5066610;28;20206;-66
2022/07/13 03:07:27;;;;;;;1.17;1.13;;;;;;;;;;5066110;28;20261;-66
2022/07/13 03:09:55;;;;;;;0.98;0.98;;;;;;;;;;5067145;28;21688;-66
2022/07/13 03:12:22;;;;;;;1.13;1.13;;;;;;;;;;5064940;28;20234;-66
2022/07/13 03:14:49;;;;;;;0.90;0.90;;;;;;;;;;5061694;28;20206;-66
2022/07/13 03:17:16;;;;;;;1.15;1.05;;;;;;;;;;5066213;28;20203;-65
2022/07/13 03:19:43;;;;;;;2.80;1.13;;;;;;;;;;5065680;28;20199;-66
2022/07/13 03:22:10;;;;;;;0.90;0.90;;;;;;;;;;5065118;28;20699;-65
2022/07/13 03:24:39;;;;;;;3.83;1.13;;;;;;;;;;5067767;28;20207;-66
2022/07/13 03:27:06;;;;;;;1.33;1.23;;;;;;;;;;5067075;28;20199;-66
2022/07/13 03:29:33;;;;;;;1.15;1.15;;;;;;;;;;5066983;28;20203;-66
2022/07/13 03:32:00;;;;;;;1.00;1.00;;;;;;;;;;5064481;28;20278;-66
2022/07/13 03:34:27;;;;;;;0.98;0.98;;;;;;;;;;5067008;28;20245;-66
2022/07/13 03:36:54;;;;;;;1.02;1.02;;;;;;;;;;5066533;28;20466;-66
2022/07/13 03:39:21;;;;;;;1.85;1.10;;;;;;;;;;5067961;28;20215;-66
2022/07/13 03:41:49;;;;;;;1.10;1.10;;;;;;;;;;5070260;28;20225;-66
2022/07/13 03:44:16;;;;;;;1.27;1.27;;;;;;;;;;5066527;28;20695;-66
2022/07/13 03:46:43;;;;;;;0.98;0.98;;;;;;;;;;5069959;28;20250;-66
2022/07/13 03:49:11;;;;;;;1.75;1.20;;;;;;;;;;5068776;28;20280;-66
2022/07/13 03:51:40;;;;;;;1.10;1.10;;;;;;;;;;5069462;28;20207;-66
2022/07/13 03:54:07;;;;;;;1.65;1.00;;;;;;;;;;5067591;28;20214;-66
2022/07/13 03:56:34;;;;;;;0.88;0.88;;;;;;;;;;5070439;28;20586;-66
2022/07/13 03:59:03;;;;;;;1.05;1.05;;;;;;;;;;5068993;28;20199;-66
2022/07/13 04:01:30;;;;;;;1.05;1.05;;;;;;;;;;5067190;28;20202;-66
2022/07/13 04:03:58;;;;;;;0.98;0.98;;;;;;;;;;5067728;28;20235;-66
2022/07/13 04:06:25;;;;;;;0.98;0.98;;;;;;;;;;5068131;28;20207;-66
2022/07/13 04:08:52;;;;;;;1.50;0.90;;;;;;;;;;5070016;28;20210;-66
2022/07/13 04:11:19;;;;;;;3.60;1.10;;;;;;;;;;5068391;28;20202;-66
2022/07/13 04:13:46;;;;;;;1.10;1.10;;;;;;;;;;5070922;28;20207;-65
2022/07/13 04:16:15;;;;;;;1.00;1.00;;;;;;;;;;5068507;28;20223;-66
2022/07/13 04:18:42;;;;;;;1.00;1.00;;;;;;;;;;5069205;28;20210;-66
2022/07/13 04:21:10;;;;;;;3.00;1.10;;;;;;;;;;5068202;28;20276;-66
2022/07/13 04:23:37;;;;;;;1.00;1.00;;;;;;;;;;5070082;28;20230;-66
2022/07/13 04:26:04;;;;;;;4.25;1.10;;;;;;;;;;5070104;28;20214;-66
2022/07/13 04:28:32;;;;;;;1.10;1.10;;;;;;;;;;5068106;28;20207;-66
2022/07/13 04:30:59;;;;;;;1.02;0.90;;;;;;;;;;5069708;28;20256;-64
2022/07/13 04:33:27;;;;;;;1.00;1.00;;;;;;;;;;5069028;28;20211;-64
2022/07/13 04:35:54;;;;;;;0.90;0.90;;;;;;;;;;5067047;28;20968;-64
2022/07/13 04:38:21;;;;;;;1.70;1.00;;;;;;;;;;5067297;28;20203;-65
2022/07/13 04:40:48;;;;;;;1.40;1.30;;;;;;;;;;5069810;28;20571;-64
2022/07/13 04:43:15;;;;;;;1.20;1.20;;;;;;;;;;5069091;28;20207;-63
2022/07/13 04:45:43;;;;;;;1.95;1.02;;;;;;;;;;5074549;28;20764;-65
2022/07/13 04:48:10;;;;;;;1.27;1.15;;;;;;;;;;5075009;28;20590;-66
2022/07/13 04:50:38;;;;;;;1.27;1.25;;;;;;;;;;5070530;28;20787;-65
2022/07/13 04:53:05;;;;;;;1.00;1.00;;;;;;;;;;5069490;28;20206;-65
2022/07/13 04:55:32;;;;;;;1.48;1.38;;;;;;;;;;5067034;28;20272;-66
2022/07/13 04:57:59;;;;;;;1.13;1.13;;;;;;;;;;5066920;28;20298;-66
2022/07/13 05:00:26;;;;;;;1.40;1.35;;;;;;;;;;5069549;28;20917;-66
2022/07/13 05:02:53;;;;;;;1.10;1.10;;;;;;;;;;5067090;28;20199;-66
2022/07/13 05:05:21;;;;;;;1.38;1.38;;;;;;;;;;5069224;28;20207;-66
2022/07/13 05:07:50;;;;;;;1.20;1.20;;;;;;;;;;5067984;28;20248;-68
2022/07/13 05:10:17;;;;;;;1.48;1.42;;;;;;;;;;5069042;28;20829;-68
2022/07/13 05:12:44;;;;;;;1.50;1.40;;;;;;;;;;5070754;28;20600;-66
2022/07/13 05:15:11;;;;;;;1.42;1.42;;;;;;;;;;5070625;28;20203;-67
2022/07/13 05:17:39;;;;;;;1.55;1.40;;;;;;;;;;5070453;28;20739;-67
2022/07/13 05:20:07;;;;;;;1.85;1.40;;;;;;;;;;5071025;28;20661;-67
2022/07/13 05:22:34;;;;;;;1.40;1.30;;;;;;;;;;5070719;28;20571;-67
2022/07/13 05:25:02;;;;;;;1.30;1.30;;;;;;;;;;5070977;28;20238;-67
2022/07/13 05:27:29;;;;;;;1.38;1.33;;;;;;;;;;5066237;28;20207;-67
2022/07/13 05:29:56;;;;;;;4.45;1.20;;;;;;;;;;5070747;28;20207;-67
2022/07/13 05:32:23;;;;;;;1.17;1.17;;;;;;;;;;5068259;28;20294;-66
2022/07/13 05:34:50;;;;;;;1.42;1.20;;;;;;;;;;5074098;28;20202;-66
2022/07/13 05:37:17;;;;;;;2.42;1.17;;;;;;;;;;5073220;28;20231;-66
2022/07/13 05:39:45;;;;;;;1.88;1.70;;;;;;;;;;5071016;28;20213;-67
2022/07/13 05:42:14;;;;;;;1.45;1.42;;;;;;;;;;5069290;28;20207;-66
2022/07/13 05:44:41;;;;;;;1.50;1.40;;;;;;;;;;5070258;28;20215;-66
2022/07/13 05:47:08;;;;;;;1.55;1.45;;;;;;;;;;5069878;28;20769;-67
2022/07/13 05:49:35;;;;;;;2.20;2.10;;;;;;;;;;5070538;28;20214;-66
2022/07/13 05:52:02;;;;;;;9.27;3.17;;;;;;;;;;5068655;28;20695;-66
2022/07/13 05:54:30;;;;;;;1.30;1.30;;;;;;;;;;5070574;28;20231;-66
2022/07/13 05:56:57;;;;;;;2.38;1.65;;;;;;;;;;5070271;28;20719;-67
2022/07/13 05:59:26;;;;;;;1.25;1.23;;;;;;;;;;5070267;28;20203;-66
2022/07/13 06:01:53;;;;;;;2.15;1.52;;;;;;;;;;5069961;28;21332;-66
2022/07/13 06:04:20;;;;;;;1.77;1.33;;;;;;;;;;5070160;28;20214;-66
2022/07/13 06:06:47;;;;;;;3.72;1.42;;;;;;;;;;5070025;28;20268;-66
2022/07/13 06:09:14;;;;;;;1.63;1.52;;;;;;;;;;5069971;28;20199;-66
2022/07/13 06:11:41;;;;;;;1.30;1.30;;;;;;;;;;5069872;28;20448;-63
2022/07/13 06:14:09;;;;;;;1.15;1.15;;;;;;;;;;5069846;28;20207;-66
2022/07/13 06:16:37;;;;;;;1.10;1.10;;;;;;;;;;5069613;28;20237;-66
2022/07/13 06:19:05;;;;;;;1.65;1.15;;;;;;;;;;5065988;28;20203;-67
2022/07/13 06:21:32;;;;;;;1.65;1.63;;;;;;;;;;5081905;28;20221;-66
2022/07/13 06:23:59;;;;;;;1.50;1.40;;;;;;;;;;5078758;28;20865;-65
2022/07/13 06:26:26;;;;;;;1.90;1.20;;;;;;;;;;5088978;28;20236;-66
2022/07/13 06:28:53;;;;;;;1.55;1.02;;;;;;;;;;5089938;28;20214;-66
2022/07/13 06:31:20;;;;;;;1.25;1.25;;;;;;;;;;5090001;28;20206;-66
2022/07/13 06:33:51;;;;;;;1.05;1.05;;;;;;;;;;5090100;28;20218;-68
2022/07/13 06:36:18;;;;;;;2.65;1.17;;;;;;;;;;5089335;28;20237;-66
2022/07/13 06:38:45;;;;;;;1.00;1.00;;;;;;;;;;5069752;28;20215;-66
2022/07/13 06:41:12;;;;;;;1.15;1.15;;;;;;;;;;5069369;28;20233;-66
2022/07/13 06:43:39;;;;;;;1.05;1.05;;;;;;;;;;5069368;28;20207;-66
2022/07/13 06:46:07;;;;;;;1.60;1.00;;;;;;;;;;5068839;28;20334;-66
2022/07/13 06:48:34;;;;;;;1.58;1.02;;;;;;;;;;5068904;28;20207;-66
2022/07/13 06:51:02;;;;;;;5.20;1.13;;;;;;;;;;5075146;28;20289;-66
2022/07/13 06:53:29;;;;;;;4.78;1.20;;;;;;;;;;5082269;28;20218;-66
2022/07/13 06:55:57;;;;;;;2.65;1.00;;;;;;;;;;5082378;28;20229;-66
2022/07/13 06:58:24;;;;;;;1.02;1.02;;;;;;;;;;5089122;28;20466;-66
2022/07/13 07:00:51;;;;;;;0.90;0.90;;;;;;;;;;5089333;28;20231;-66
2022/07/13 07:03:19;;;;;;;1.00;1.00;;;;;;;;;;5089327;28;20305;-66
2022/07/13 07:05:46;;;;;;;0.95;0.95;;;;;;;;;;5088412;28;20763;-67
2022/07/13 07:08:16;;;;;;;1.20;1.20;;;;;;;;;;5074210;28;20199;-67
2022/07/13 07:10:43;;;;;;;1.00;1.00;;;;;;;;;;5068112;28;20218;-67
2022/07/13 07:13:11;;;;;;;0.95;0.95;;;;;;;;;;5068150;28;20223;-67
2022/07/13 07:15:38;;;;;;;1.10;1.10;;;;;;;;;;5067476;28;20213;-67
2022/07/13 07:18:05;;;;;;;1.35;0.98;;;;;;;;;;5067625;28;20712;-67
2022/07/13 07:20:32;;;;;;;1.75;1.30;;;;;;;;;;5067936;28;20214;-67
2022/07/13 07:22:59;;;;;;;0.90;0.90;;;;;;;;;;5074545;28;20668;-67
2022/07/13 07:25:28;;;;;;;1.02;1.02;;;;;;;;;;5068362;28;20214;-67
2022/07/13 07:27:55;;;;;;;2.83;1.30;;;;;;;;;;5068110;28;20207;-67
2022/07/13 07:30:22;;;;;;;1.27;1.17;;;;;;;;;;5068077;28;20575;-68
2022/07/13 07:32:49;;;;;;;1.35;1.35;;;;;;;;;;5067867;28;20694;-67
2022/07/13 07:35:17;;;;;;;0.98;0.98;;;;;;;;;;5078776;28;20297;-67
2022/07/13 07:37:44;;;;;;;1.20;1.10;;;;;;;;;;5088294;28;20226;-67
2022/07/13 07:40:11;;;;;;;1.30;1.30;;;;;;;;;;5087901;28;20573;-67
2022/07/13 07:42:40;;;;;;;1.27;1.27;;;;;;;;;;5088366;28;20902;-67
2022/07/13 07:45:08;;;;;;;2.30;1.48;;;;;;;;;;5080007;28;20627;-67
2022/07/13 07:47:35;;;;;;;1.25;1.00;;;;;;;;;;5067253;28;20207;-72
2022/07/13 07:50:03;;;;;;;1.30;1.30;;;;;;;;;;5067140;28;20203;-67
2022/07/13 07:52:31;;;;;;;2.42;1.08;;;;;;;;;;5084206;28;20202;-66
2022/07/13 07:54:58;;;;;;;1.02;1.02;;;;;;;;;;5068176;28;20313;-67
2022/07/13 07:57:25;;;;;;;2.28;1.00;;;;;;;;;;5067692;28;20285;-65
2022/07/13 07:59:53;;;;;;;1.98;1.27;;;;;;;;;;5068502;28;20215;-68
2022/07/13 08:02:21;;;;;;;1.75;1.05;;;;;;;;;;5052287;28;20207;-64
2022/07/13 08:04:49;;;;;;;4.03;1.17;;;;;;;;;;5067907;28;20665;-65
2022/07/13 08:07:16;;;;;;;4.03;0.90;;;;;;;;;;5068333;28;20207;-64
2022/07/13 08:09:43;;;;;;;1.10;1.00;;;;;;;;;;5068194;28;20257;-66
2022/07/13 08:12:11;;;;;;;1.45;1.40;;;;;;;;;;5068030;28;20453;-67
2022/07/13 08:14:38;;;;;;;1.55;1.15;;;;;;;;;;5067979;28;20203;-67
2022/07/13 08:17:06;;;;;;;0.90;0.90;;;;;;;;;;5047942;28;20293;-67
2022/07/13 08:19:33;;;;;;;1.35;0.88;;;;;;;;;;5071624;28;20207;-67
2022/07/13 08:22:00;;;;;;;0.73;0.70;;;;;;;;;;5088679;28;21014;-67
2022/07/13 08:24:28;;;;;;;1.00;0.95;;;;;;;;;;5083982;28;20304;-67
2022/07/13 08:26:55;;;;;;;1.00;1.00;;;;;;;;;;5091391;28;20260;-67
2022/07/13 08:29:22;;;;;;;0.73;0.73;;;;;;;;;;5091653;28;20210;-65
2022/07/13 08:31:49;;;;;;;0.95;0.80;;;;;;;;;;5092093;28;20272;-66
2022/07/13 08:39:47;;;;;;;3.00;0.80;;;;;;;;;;5072023;28;20238;-67
2022/07/13 08:42:14;;;;;;;1.27;0.70;;;;;;;;;;5071748;28;20207;-67
2022/07/13 08:44:42;;;;;;;3.63;0.90;;;;;;;;;;5071212;28;20207;-67
2022/07/13 08:47:10;;;;;;;0.73;0.73;;;;;;;;;;5071456;28;20303;-67
2022/07/13 08:49:39;;;;;;;3.22;1.10;;;;;;;;;;5071175;28;20208;-67
2022/07/13 08:52:06;;;;;;;0.70;0.70;;;;;;;;;;5069778;28;20258;-67
2022/07/13 08:54:34;;;;;;;0.77;0.77;;;;;;;;;;5069501;28;20736;-66
2022/07/13 08:57:01;;;;;;;0.70;0.70;;;;;;;;;;5071222;28;20276;-66
2022/07/13 08:59:28;;;;;;;3.17;0.70;;;;;;;;;;5071028;28;20692;-67
2022/07/13 09:01:55;;;;;;;2.75;0.75;;;;;;;;;;5070892;28;20285;-66
2022/07/13 09:04:23;;;;;;;0.68;0.68;;;;;;;;;;5069567;28;20209;-66
2022/07/13 09:06:51;;;;;;;0.70;0.70;;;;;;;;;;5070048;28;20302;-71
2022/07/13 09:09:30;;;;;;;0.70;0.70;;;;;;;;;;5070209;28;20202;-68
2022/07/13 09:12:10;;;;;;;0.60;0.60;;;;;;;;;;5069917;28;20219;-64
2022/07/13 09:14:38;;;;;;;0.63;0.63;;;;;;;;;;5070173;28;20211;-64
2022/07/13 09:17:05;;;;;;;0.60;0.60;;;;;;;;;;5070363;28;20230;-64
2022/07/13 09:19:35;;;;;;;0.68;0.68;;;;;;;;;;5069823;28;20276;-65
2022/07/13 09:22:12;;;;;;;0.80;0.80;;;;;;;;;;5070236;28;20769;-67
2022/07/13 09:24:45;;;;;;;0.60;0.57;;;;;;;;;;5070330;28;20218;-64
2022/07/13 09:27:13;;;;;;;0.68;0.68;;;;;;;;;;5065229;28;20206;-66
2022/07/13 09:29:40;;;;;;;0.60;0.60;;;;;;;;;;5066905;28;20234;-65
2022/07/13 09:32:08;;;;;;;2.15;0.60;;;;;;;;;;5069520;28;20221;-65
2022/07/13 09:34:46;;;;;;;0.75;0.75;;;;;;;;;;5070207;28;20207;-65
2022/07/13 09:37:16;;;;;;;2.95;0.80;;;;;;;;;;5068344;28;20219;-66
2022/07/13 09:40:17;;;;;;;3.47;0.80;;;;;;;;;;5069289;28;20199;-65
2022/07/13 09:42:45;;;;;;;1.00;0.68;;;;;;;;;;5027421;28;20211;-64
2022/07/13 09:48:00;;;;;;;0.68;0.68;;;;;;;;;;5068974;28;20664;-65
2022/07/13 09:50:37;;;;;;;0.55;0.50;;;;;;;;;;5069680;28;20211;-65
2022/07/13 09:53:23;;;;;;;0.60;0.60;;;;;;;;;;5063651;28;20872;-67
2022/07/13 09:55:52;;;;;;;0.70;0.70;;;;;;;;;;5065585;28;20234;-67
2022/07/13 09:58:20;;;;;;;0.50;0.50;;;;;;;;;;5069336;28;20222;-67
2022/07/13 10:00:47;;;;;;;0.57;0.57;;;;;;;;;;5080589;28;20260;-68
2022/07/13 10:03:14;;;;;;;0.65;0.65;;;;;;;;;;5090019;28;20221;-68
2022/07/13 10:05:42;;;;;;;0.52;0.52;;;;;;;;;;5071456;28;20211;-68
2022/07/13 10:08:10;;;;;;;0.63;0.60;;;;;;;;;;5068415;28;20885;-67
2022/07/13 10:10:37;;;;;;;0.50;0.50;;;;;;;;;;5069308;28;20567;-67
2022/07/13 10:13:06;;;;;;;1.05;0.52;;;;;;;;;;5069174;28;20227;-68
2022/07/13 10:15:33;;;;;;;0.70;0.70;;;;;;;;;;5068796;28;20293;-68
2022/07/13 10:18:01;;;;;;;2.63;0.60;;;;;;;;;;5068130;28;20235;-68
2022/07/13 10:20:29;;;;;;;0.60;0.60;;;;;;;;;;5068959;28;20222;-68
2022/07/13 10:22:56;;;;;;;0.82;0.82;;;;;;;;;;5067820;28;20218;-68
2022/07/13 10:25:42;;;;;;;0.60;0.60;;;;;;;;;;5069268;28;20211;-66
2022/07/13 10:28:11;;;;;;;1.75;0.93;;;;;;;;;;5065065;28;20203;-67
2022/07/13 10:30:38;;;;;;;1.95;0.60;;;;;;;;;;5068686;28;20207;-68
2022/07/13 10:33:18;;;;;;;0.68;0.68;;;;;;;;;;5069197;28;20661;-68
2022/07/13 10:35:49;;;;;;;0.57;0.57;;;;;;;;;;5069215;28;20218;-68
2022/07/13 10:38:17;;;;;;;2.90;0.52;;;;;;;;;;5067571;28;20219;-69
2022/07/13 10:40:45;;;;;;;0.50;0.50;;;;;;;;;;5068838;28;20206;-65
2022/07/13 10:43:13;;;;;;;0.50;0.50;;;;;;;;;;5067007;28;20230;-67
2022/07/13 10:45:43;;;;;;;0.40;0.40;;;;;;;;;;5068744;28;20262;-66
2022/07/13 10:48:32;;;;;;;0.50;0.50;;;;;;;;;;5068465;28;20203;-66
2022/07/13 10:51:00;;;;;;;0.60;0.60;;;;;;;;;;5068785;28;20203;-66
2022/07/13 10:53:43;;;;;;;0.30;0.30;;;;;;;;;;5067561;28;20206;-67
2022/07/13 10:56:18;;;;;;;0.47;0.47;;;;;;;;;;5080539;28;20218;-65
2022/07/13 10:58:46;;;;;;;3.83;0.60;;;;;;;;;;5089296;28;20661;-69
2022/07/13 11:01:32;;;;;;;0.60;0.60;;;;;;;;;;5069510;28;20856;-69
2022/07/13 11:04:00;;;;;;;1.00;0.70;;;;;;;;;;5068690;28;20228;-68
2022/07/13 11:06:29;;;;;;;1.02;0.50;;;;;;;;;;5067553;28;20209;-68
2022/07/13 11:09:12;;;;;;;0.57;0.57;;;;;;;;;;5067240;28;20195;-66
2022/07/13 11:11:47;;;;;;;1.42;0.63;;;;;;;;;;5058265;28;20207;-68
2022/07/13 11:14:33;;;;;;;1.42;0.70;;;;;;;;;;5052691;28;20819;-70
2022/07/13 11:17:12;;;;;;;0.70;0.70;;;;;;;;;;5065775;28;20202;-70
2022/07/13 11:19:57;;;;;;;0.68;0.68;;;;;;;;;;5067455;28;20226;-68
2022/07/13 11:22:25;;;;;;;0.70;0.70;;;;;;;;;;5067469;28;20277;-70
2022/07/13 11:25:15;;;;;;;0.70;0.60;;;;;;;;;;5066523;28;20214;-73
2022/07/13 11:27:53;;;;;;;0.60;0.60;;;;;;;;;;5055838;28;20734;-70
2022/07/13 11:30:25;;;;;;;0.70;0.70;;;;;;;;;;5061245;28;20201;-70
2022/07/13 11:32:52;;;;;;;0.90;0.60;;;;;;;;;;5067092;28;20232;-69
2022/07/13 11:35:19;;;;;;;0.73;0.70;;;;;;;;;;5066886;28;20213;-71
2022/07/13 11:37:47;;;;;;;0.60;0.60;;;;;;;;;;5067271;28;20203;-72
2022/07/13 11:40:27;;;;;;;0.50;0.50;;;;;;;;;;5067624;28;20195;-71
2022/07/13 11:42:55;;;;;;;0.60;0.60;;;;;;;;;;5068012;28;20202;-69
2022/07/13 11:45:26;;;;;;;0.75;0.55;;;;;;;;;;5066920;28;20261;-68
2022/07/13 11:47:56;;;;;;;0.90;0.70;;;;;;;;;;5066750;28;20272;-69
2022/07/13 11:50:23;;;;;;;0.70;0.70;;;;;;;;;;5084730;28;20206;-71
2022/07/13 11:52:50;;;;;;;0.50;0.50;;;;;;;;;;5069241;28;20580;-71
2022/07/13 11:55:17;;;;;;;0.43;0.43;;;;;;;;;;5064826;28;20324;-66
2022/07/13 11:57:47;;;;;;;0.88;0.60;;;;;;;;;;5067116;28;20202;-68
2022/07/13 12:00:17;;;;;;;0.50;0.50;;;;;;;;;;5078900;28;20290;-67
2022/07/13 12:02:44;;;;;;;1.20;0.60;;;;;;;;;;5066621;28;20213;-67
2022/07/13 12:05:12;;;;;;;1.10;0.70;;;;;;;;;;5067798;28;20301;-67
2022/07/13 12:07:39;;;;;;;0.50;0.50;;;;;;;;;;5072456;28;20292;-66
2022/07/13 12:10:07;;;;;;;0.50;0.50;;;;;;;;;;5068062;28;20214;-67
2022/07/13 12:12:35;;;;;;;0.50;0.50;;;;;;;;;;5069504;28;20674;-68
2022/07/13 12:15:03;;;;;;;0.60;0.60;;;;;;;;;;5066624;28;20210;-66
2022/07/13 12:17:31;;;;;;;0.60;0.60;;;;;;;;;;5066823;28;20210;-66
2022/07/13 12:20:10;;;;;;;0.50;0.50;;;;;;;;;;5078351;28;20238;-67
2022/07/13 12:22:37;;;;;;;0.80;0.80;;;;;;;;;;5077887;28;20202;-68
2022/07/13 12:25:05;;;;;;;0.55;0.55;;;;;;;;;;5066293;28;20206;-68
2022/07/13 12:27:32;;;;;;;1.23;0.57;;;;;;;;;;5066658;28;20203;-69
2022/07/13 12:30:07;;;;;;;0.52;0.52;;;;;;;;;;5066783;28;20225;-68
2022/07/13 12:32:55;;;;;;;0.60;0.60;;;;;;;;;;5066238;28;20259;-68
2022/07/13 12:35:22;;;;;;;0.50;0.50;;;;;;;;;;5064291;28;20203;-67
2022/07/13 12:37:51;;;;;;;0.50;0.50;;;;;;;;;;5068885;28;20707;-68
2022/07/13 12:40:33;;;;;;;0.68;0.43;;;;;;;;;;5066978;28;20220;-68
2022/07/13 12:43:00;;;;;;;0.60;0.60;;;;;;;;;;5053251;28;20289;-67
2022/07/13 12:45:31;;;;;;;0.45;0.45;;;;;;;;;;5064737;28;20242;-69
2022/07/13 12:47:59;;;;;;;0.60;0.60;;;;;;;;;;5064867;28;20695;-68
2022/07/13 12:50:27;;;;;;;0.52;0.52;;;;;;;;;;5066704;28;20210;-69
2022/07/13 12:53:01;;;;;;;1.00;0.50;;;;;;;;;;5066205;28;20290;-69
2022/07/13 12:55:28;;;;;;;0.95;0.40;;;;;;;;;;5066144;28;20230;-70
2022/07/13 12:57:56;;;;;;;1.35;0.47;;;;;;;;;;5066227;28;20210;-69
2022/07/13 13:00:23;;;;;;;0.52;0.52;;;;;;;;;;5062340;28;20836;-68
2022/07/13 13:02:50;;;;;;;0.40;0.40;;;;;;;;;;5065471;28;20263;-70
2022/07/13 13:05:19;;;;;;;0.38;0.38;;;;;;;;;;5065769;28;20745;-69
2022/07/13 13:07:46;;;;;;;0.40;0.40;;;;;;;;;;5065106;28;20248;-68
2022/07/13 13:10:13;;;;;;;0.50;0.50;;;;;;;;;;5065456;28;20206;-69
2022/07/13 13:12:40;;;;;;;0.50;0.50;;;;;;;;;;5063593;28;20244;-68
2022/07/13 13:15:07;;;;;;;0.40;0.40;;;;;;;;;;5065697;28;20217;-68
2022/07/13 13:17:35;;;;;;;0.50;0.50;;;;;;;;;;5064191;28;20713;-69
2022/07/13 13:20:02;;;;;;;0.63;0.50;;;;;;;;;;5065797;28;20233;-68
2022/07/13 13:22:30;;;;;;;0.45;0.45;;;;;;;;;;5065467;28;20214;-69
2022/07/13 13:24:57;;;;;;;0.60;0.60;;;;;;;;;;5065342;28;20296;-69
2022/07/13 13:27:24;;;;;;;0.40;0.40;;;;;;;;;;5064977;28;20210;-70
2022/07/13 13:32:37;;;;;;;0.45;0.40;;;;;;;;;;5065822;28;20209;-69
2022/07/13 13:35:04;;;;;;;0.40;0.40;;;;;;;;;;5066405;28;20252;-68
2022/07/13 13:37:32;;;;;;;0.57;0.40;;;;;;;;;;5065358;28;20208;-67
2022/07/13 13:39:59;;;;;;;0.40;0.40;;;;;;;;;;5065879;28;20230;-68
2022/07/13 13:42:26;;;;;;;0.57;0.47;;;;;;;;;;5064451;28;20218;-64
2022/07/13 13:44:54;;;;;;;0.40;0.30;;;;;;;;;;5046933;28;20332;-65
2022/07/13 13:47:21;;;;;;;0.50;0.50;;;;;;;;;;5065598;28;20218;-65
2022/07/13 13:49:51;;;;;;;2.15;0.50;;;;;;;;;;5064955;28;20252;-64
2022/07/13 13:52:18;;;;;;;0.40;0.40;;;;;;;;;;5064412;28;20206;-67
2022/07/13 13:54:46;;;;;;;0.43;0.43;;;;;;;;;;5064788;28;20279;-66
2022/07/13 13:57:13;;;;;;;0.40;0.40;;;;;;;;;;5065141;28;20218;-64
2022/07/13 13:59:40;;;;;;;0.40;0.40;;;;;;;;;;5065749;28;20283;-64
2022/07/13 14:02:07;;;;;;;0.32;0.32;;;;;;;;;;5064622;28;20206;-66
2022/07/13 14:04:34;;;;;;;0.40;0.40;;;;;;;;;;5065107;28;20256;-66
2022/07/13 14:07:03;;;;;;;0.30;0.30;;;;;;;;;;5065139;28;20202;-65
2022/07/13 14:09:30;;;;;;;2.38;0.50;;;;;;;;;;5065356;28;20209;-66
2022/07/13 14:11:59;;;;;;;0.40;0.40;;;;;;;;;;5063086;28;20214;-64
2022/07/13 14:14:26;;;;;;;0.45;0.45;;;;;;;;;;5061123;28;20610;-65
2022/07/13 14:16:53;;;;;;;0.40;0.40;;;;;;;;;;5064177;28;20225;-65
2022/07/13 14:19:23;;;;;;;2.35;0.32;;;;;;;;;;5064110;28;20245;-65
2022/07/13 14:21:50;;;;;;;1.23;0.50;;;;;;;;;;5064706;28;20326;-65
2022/07/13 14:24:17;;;;;;;0.30;0.30;;;;;;;;;;5063564;28;20225;-66
2022/07/13 14:26:44;;;;;;;0.20;0.20;;;;;;;;;;5063646;28;20276;-65
2022/07/13 14:29:12;;;;;;;0.30;0.30;;;;;;;;;;5063132;28;20682;-65
2022/07/13 14:31:39;;;;;;;0.40;0.40;;;;;;;;;;5063102;28;20248;-65
2022/07/13 14:34:06;;;;;;;0.30;0.30;;;;;;;;;;5063371;28;20203;-65
2022/07/13 14:36:33;;;;;;;1.17;0.43;;;;;;;;;;5063102;28;20214;-65
2022/07/13 14:39:00;;;;;;;0.50;0.50;;;;;;;;;;5063240;28;20284;-65
2022/07/13 14:41:27;;;;;;;0.45;0.45;;;;;;;;;;5063437;28;20218;-65
2022/07/13 14:43:54;;;;;;;0.40;0.40;;;;;;;;;;5063456;28;20586;-65
2022/07/13 14:46:25;;;;;;;1.20;1.20;;;;;;;;;;5063267;28;20234;-65
2022/07/13 14:48:52;;;;;;;0.40;0.40;;;;;;;;;;5063586;28;20725;-66
2022/07/13 14:51:19;;;;;;;0.40;0.40;;;;;;;;;;5062917;28;20233;-65
2022/07/13 14:53:47;;;;;;;0.57;0.40;;;;;;;;;;5062450;28;20218;-65
2022/07/13 14:56:14;;;;;;;0.35;0.35;;;;;;;;;;5063535;28;20687;-65
2022/07/13 14:58:42;;;;;;;0.28;0.28;;;;;;;;;;5063540;28;20747;-65
2022/07/13 15:01:09;;;;;;;0.30;0.30;;;;;;;;;;5062920;28;20241;-66